Phoenix Cross — MRBQ7 — position and weather

sailwx.info

Track history (hours):
 
Tides and Currents Weather Stations Pressure Air Temp Water Temp Dewpoint Dewpoint Depression Visibility Wind Speed Wind Dir Waves Ship Positions

Phoenix Cross

Last reported at 2016-Apr-30 12:33 UTC. Time now 2016-Apr-30 13:11 UTC.
Position N 54°35' W 001°13'.

Length 30 m; draft 5 m.

Type: Ship. MMSI: 235067452.

Date/timePositionNaut miles runAvg speedWind from/ knotsBaromVisibWave heightAir tempDewpointWater temp
2016-Apr-30 12:33N 54°35' W 001°13'0 0.0
2016-Apr-30 11:33N 54°35' W 001°13'0 0.0
2016-Apr-30 10:33N 54°35' W 001°13'0 0.0
2016-Apr-30 09:33N 54°35' W 001°13'0 0.0
2016-Apr-30 08:33N 54°35' W 001°13'0 0.0
2016-Apr-30 07:33N 54°35' W 001°13'2 2.0
2016-Apr-30 06:33N 54°36' W 001°10'1 1.3
2016-Apr-30 05:33N 54°37' W 001°09'0 0.0
2016-Apr-30 04:33N 54°37' W 001°09'0 0.0
2016-Apr-30 03:33N 54°37' W 001°09'0 0.0
2016-Apr-30 02:33N 54°37' W 001°09'0 0.0
2016-Apr-30 01:32N 54°37' W 001°09'0 0.0
2016-Apr-30 00:32N 54°37' W 001°09'0 0.2
2016-Apr-29 23:32N 54°37' W 001°10'0 0.2
2016-Apr-29 22:33N 54°37' W 001°09'2 2.1
2016-Apr-29 21:30N 54°35' W 001°11'2 2.0
2016-Apr-29 20:33N 54°35' W 001°15'4 3.6
2016-Apr-29 19:33N 54°37' W 001°09'1 1.3
2016-Apr-29 18:33N 54°36' W 001°10'1 0.8
2016-Apr-29 17:32N 54°35' W 001°11'1 1.2
2016-Apr-29 16:33N 54°35' W 001°13'3 3.0
2016-Apr-29 15:32N 54°37' W 001°10'0 0.4
2016-Apr-29 14:32N 54°37' W 001°09'3 3.2
2016-Apr-29 13:32N 54°35' W 001°13'0 0.0
2016-Apr-29 12:33N 54°35' W 001°13'0 0.0
2016-Apr-29 11:33N 54°35' W 001°13'0 0.0
2016-Apr-29 10:32N 54°35' W 001°13'0 0.0
2016-Apr-29 09:33N 54°35' W 001°13'0 0.0
2016-Apr-29 08:31N 54°35' W 001°13'0 0.0
2016-Apr-29 07:32N 54°35' W 001°13'2 1.7
2016-Apr-29 06:33N 54°35' W 001°16'2 1.7
2016-Apr-29 05:33N 54°35' W 001°13'0 0.0
2016-Apr-29 01:22N 54°35' W 001°13'0 0.0
2016-Apr-29 00:33N 54°35' W 001°13'0 0.0
2016-Apr-28 23:28N 54°35' W 001°13'2 2.4
2016-Apr-28 22:33N 54°36' W 001°10'2 1.6
2016-Apr-28 21:33N 54°38' W 001°09'0 0.5
2016-Apr-28 20:33N 54°37' W 001°10'3 1.6
2016-Apr-28 18:33N 54°35' W 001°13'0 0.0
2016-Apr-28 17:32N 54°35' W 001°13'0 0.0
2016-Apr-28 16:11N 54°35' W 001°13'0 0.0
2016-Apr-28 15:28N 54°35' W 001°13'0 0.0
2016-Apr-28 14:32N 54°35' W 001°13'0 0.0
2016-Apr-28 13:33N 54°35' W 001°13'0 0.0
2016-Apr-28 12:33N 54°35' W 001°13'0 0.0
2016-Apr-28 11:32N 54°35' W 001°13'0 0.0
2016-Apr-28 10:33N 54°35' W 001°13'0 0.0
2016-Apr-28 09:33N 54°35' W 001°13'0 0.0
2016-Apr-28 08:33N 54°35' W 001°13'0 0.0
2016-Apr-28 07:33N 54°35' W 001°13'0 0.0
2016-Apr-28 06:33N 54°35' W 001°13'0 0.0
2016-Apr-28 05:32N 54°35' W 001°13'3 0.5
2016-Apr-27 23:33N 54°37' W 001°10'0 0.4
2016-Apr-27 22:33N 54°38' W 001°09'1 1.0
2016-Apr-27 21:33N 54°37' W 001°09'3 1.1
2016-Apr-27 19:07N 54°35' W 001°13'0 0.0
2016-Apr-27 18:32N 54°35' W 001°13'0 0.0
2016-Apr-27 17:33N 54°35' W 001°13'0 0.0
2016-Apr-27 16:30N 54°35' W 001°13'0 0.0
2016-Apr-27 15:33N 54°35' W 001°13'0 0.0
2016-Apr-27 14:31N 54°35' W 001°13'0 0.0
2016-Apr-27 13:32N 54°35' W 001°13'0 0.0
2016-Apr-27 12:32N 54°35' W 001°13'0 0.0
2016-Apr-27 11:32N 54°35' W 001°13'0 0.0
2016-Apr-27 10:33N 54°35' W 001°13'0 0.0
2016-Apr-27 09:28N 54°35' W 001°13'0 0.0
2016-Apr-27 08:32N 54°35' W 001°13'0 0.0
2016-Apr-27 07:33N 54°35' W 001°13'3 3.0
2016-Apr-27 06:33N 54°37' W 001°09'2 2.3
2016-Apr-27 05:33N 54°35' W 001°11'2 0.5
2016-Apr-27 00:33N 54°37' W 001°09'0 0.3
2016-Apr-26 23:33N 54°37' W 001°09'1 0.4
2016-Apr-26 21:33N 54°36' W 001°10'1 1.2
2016-Apr-26 20:33N 54°37' W 001°09'3 2.2
2016-Apr-26 19:05N 54°35' W 001°13'3 6.0
2016-Apr-26 18:33N 54°37' W 001°10'0 0.3
2016-Apr-26 17:33N 54°37' W 001°09'3 3.1
2016-Apr-26 16:32N 54°35' W 001°13'0 0.1
2016-Apr-26 15:33N 54°35' W 001°13'0 0.0
2016-Apr-26 14:30N 54°35' W 001°13'0 0.0
2016-Apr-26 10:14N 54°35' W 001°13'0 0.0
2016-Apr-26 09:21N 54°35' W 001°13'0 0.0
2016-Apr-26 08:32N 54°35' W 001°13'0 0.0
2016-Apr-26 07:32N 54°35' W 001°13'0 0.0
2016-Apr-26 06:23N 54°35' W 001°13'0 0.0
2016-Apr-26 05:33N 54°35' W 001°13'0 0.0
2016-Apr-25 18:33N 54°35' W 001°13'0 0.0
2016-Apr-25 17:31N 54°35' W 001°13'0 0.0
2016-Apr-25 16:33N 54°35' W 001°13'0 0.0
2016-Apr-25 15:30N 54°35' W 001°13'0 0.0
2016-Apr-25 14:33N 54°35' W 001°13'0 0.0
2016-Apr-25 13:25N 54°35' W 001°13'0 0.0
2016-Apr-25 12:29N 54°35' W 001°13'2 2.3
2016-Apr-25 11:33N 54°36' W 001°10'1 0.5
2016-Apr-25 10:33N 54°36' W 001°10'2 1.5
2016-Apr-25 09:29N 54°35' W 001°13'0 0.0
2016-Apr-25 08:31N 54°35' W 001°13'0 0.0
2016-Apr-25 07:33N 54°35' W 001°13'0 0.0
2016-Apr-25 06:33N 54°35' W 001°13'0 0.0
2016-Apr-25 05:32N 54°35' W 001°13'0 0.0
2016-Apr-24 19:13N 54°35' W 001°13'0 0.0
2016-Apr-24 18:31N 54°35' W 001°13'0 0.0
2016-Apr-24 17:19N 54°35' W 001°13'0 0.0
2016-Apr-24 16:20N 54°35' W 001°13'0 0.0
2016-Apr-24 15:33N 54°35' W 001°13'0 0.0
2016-Apr-24 14:24N 54°35' W 001°13'0 0.0
2016-Apr-24 09:09N 54°35' W 001°13'0 0.0
2016-Apr-24 08:11N 54°35' W 001°13'0 0.0
2016-Apr-24 07:22N 54°35' W 001°13'0 0.0
2016-Apr-24 06:30N 54°35' W 001°13'0 0.0
2016-Apr-24 05:33N 54°35' W 001°13'0 0.0
2016-Apr-23 18:15N 54°35' W 001°13'0 0.0
2016-Apr-23 17:27N 54°35' W 001°13'0 0.0
2016-Apr-23 16:33N 54°35' W 001°13'0 0.0
2016-Apr-23 15:33N 54°35' W 001°13'0 0.0
2016-Apr-23 14:31N 54°35' W 001°13'3 0.9
2016-Apr-23 11:33N 54°37' W 001°09'3 2.7
2016-Apr-23 10:32N 54°35' W 001°13'0 0.0
2016-Apr-23 07:30N 54°35' W 001°13'0 0.0
2016-Apr-23 06:22N 54°35' W 001°13'0 0.0
2016-Apr-23 01:23N 54°35' W 001°13'0 0.0
2016-Apr-22 23:25N 54°35' W 001°13'0 0.0
2016-Apr-22 20:30N 54°35' W 001°13'0 0.0
2016-Apr-22 18:32N 54°35' W 001°13'0 0.0
2016-Apr-22 17:30N 54°35' W 001°13'0 0.0
2016-Apr-22 16:33N 54°35' W 001°13'0 0.0
2016-Apr-22 15:33N 54°35' W 001°13'0 0.0
2016-Apr-22 14:31N 54°35' W 001°13'0 0.0
2016-Apr-22 13:32N 54°35' W 001°13'3 2.9
2016-Apr-22 12:33N 54°37' W 001°09'1 0.7
2016-Apr-22 11:33N 54°38' W 001°10'3 2.5
2016-Apr-22 10:32N 54°35' W 001°11'1 0.9
2016-Apr-22 09:32N 54°35' W 001°13'0 0.0
2016-Apr-22 06:29N 54°35' W 001°13'0 0.0
2016-Apr-22 05:25N 54°35' W 001°13'0 0.0
2016-Apr-22 04:13N 54°35' W 001°13'1 2.0
2016-Apr-22 03:33N 54°36' W 001°11'0 0.2
2016-Apr-22 02:33N 54°36' W 001°11'2 0.5
2016-Apr-21 23:33N 54°35' W 001°13'0 0.0
2016-Apr-21 22:33N 54°35' W 001°13'0 0.0
2016-Apr-21 20:18N 54°35' W 001°13'0 0.0
2016-Apr-21 19:29N 54°35' W 001°13'0 0.0
2016-Apr-21 18:33N 54°35' W 001°13'0 0.0
2016-Apr-21 17:29N 54°35' W 001°13'0 0.0
2016-Apr-21 16:32N 54°35' W 001°13'0 0.0
2016-Apr-21 15:30N 54°35' W 001°13'0 0.0
2016-Apr-21 14:33N 54°35' W 001°13'3 3.0
2016-Apr-21 13:33N 54°37' W 001°09'3 3.0
2016-Apr-21 12:33N 54°35' W 001°13'0 0.0
2016-Apr-21 11:32N 54°35' W 001°13'0 0.0
2016-Apr-21 10:33N 54°35' W 001°13'0 0.0
2016-Apr-21 09:33N 54°35' W 001°13'0 0.0
2016-Apr-21 08:33N 54°35' W 001°13'0 0.0
2016-Apr-21 07:33N 54°35' W 001°13'0 0.0
2016-Apr-21 06:33N 54°35' W 001°13'0 0.0
2016-Apr-21 05:33N 54°35' W 001°13'0 0.0
2016-Apr-21 04:33N 54°35' W 001°13'0 0.0
2016-Apr-21 03:33N 54°35' W 001°13'3 2.8
2016-Apr-21 02:33N 54°37' W 001°09'0 0.2
2016-Apr-21 01:32N 54°37' W 001°09'0 0.3
2016-Apr-21 00:33N 54°37' W 001°09'2 1.9
2016-Apr-20 23:31N 54°36' W 001°11'1 0.3
2016-Apr-20 18:32N 54°35' W 001°13'0 0.0
2016-Apr-20 17:33N 54°35' W 001°13'0 0.0
2016-Apr-20 16:32N 54°35' W 001°13'0 0.0
2016-Apr-20 15:32N 54°35' W 001°13'0 0.0
2016-Apr-20 14:30N 54°35' W 001°13'1 1.0
2016-Apr-20 13:29N 54°35' W 001°11'  
Track history (hours):
 
Tides and Currents Weather Stations Pressure Air Temp Water Temp Dewpoint Dewpoint Depression Visibility Wind Speed Wind Dir Waves Ship Positions

Phoenix Cross

Last reported at 2016-Apr-30 12:33 UTC. Time now 2016-Apr-30 13:11 UTC.
Position N 54°35' W 001°13'.

Length 30 m; draft 5 m.

Type: Ship. MMSI: 235067452.

Date/timePositionNaut miles runAvg speedWind from/ knotsBaromVisibWave heightAir tempDewpointWater temp
2016-Apr-30 12:33N 54°35' W 001°13'0 0.0
2016-Apr-30 11:33N 54°35' W 001°13'0 0.0
2016-Apr-30 10:33N 54°35' W 001°13'0 0.0
2016-Apr-30 09:33N 54°35' W 001°13'0 0.0
2016-Apr-30 08:33N 54°35' W 001°13'0 0.0
2016-Apr-30 07:33N 54°35' W 001°13'2 2.0
2016-Apr-30 06:33N 54°36' W 001°10'1 1.3
2016-Apr-30 05:33N 54°37' W 001°09'0 0.0
2016-Apr-30 04:33N 54°37' W 001°09'0 0.0
2016-Apr-30 03:33N 54°37' W 001°09'0 0.0
2016-Apr-30 02:33N 54°37' W 001°09'0 0.0
2016-Apr-30 01:32N 54°37' W 001°09'0 0.0
2016-Apr-30 00:32N 54°37' W 001°09'0 0.2
2016-Apr-29 23:32N 54°37' W 001°10'0 0.2
2016-Apr-29 22:33N 54°37' W 001°09'2 2.1
2016-Apr-29 21:30N 54°35' W 001°11'2 2.0
2016-Apr-29 20:33N 54°35' W 001°15'4 3.6
2016-Apr-29 19:33N 54°37' W 001°09'1 1.3
2016-Apr-29 18:33N 54°36' W 001°10'1 0.8
2016-Apr-29 17:32N 54°35' W 001°11'1 1.2
2016-Apr-29 16:33N 54°35' W 001°13'3 3.0
2016-Apr-29 15:32N 54°37' W 001°10'0 0.4
2016-Apr-29 14:32N 54°37' W 001°09'3 3.2
2016-Apr-29 13:32N 54°35' W 001°13'0 0.0
2016-Apr-29 12:33N 54°35' W 001°13'0 0.0
2016-Apr-29 11:33N 54°35' W 001°13'0 0.0
2016-Apr-29 10:32N 54°35' W 001°13'0 0.0
2016-Apr-29 09:33N 54°35' W 001°13'0 0.0
2016-Apr-29 08:31N 54°35' W 001°13'0 0.0
2016-Apr-29 07:32N 54°35' W 001°13'2 1.7
2016-Apr-29 06:33N 54°35' W 001°16'2 1.7
2016-Apr-29 05:33N 54°35' W 001°13'0 0.0
2016-Apr-29 01:22N 54°35' W 001°13'0 0.0
2016-Apr-29 00:33N 54°35' W 001°13'0 0.0
2016-Apr-28 23:28N 54°35' W 001°13'2 2.4
2016-Apr-28 22:33N 54°36' W 001°10'2 1.6
2016-Apr-28 21:33N 54°38' W 001°09'0 0.5
2016-Apr-28 20:33N 54°37' W 001°10'3 1.6
2016-Apr-28 18:33N 54°35' W 001°13'0 0.0
2016-Apr-28 17:32N 54°35' W 001°13'0 0.0
2016-Apr-28 16:11N 54°35' W 001°13'0 0.0
2016-Apr-28 15:28N 54°35' W 001°13'0 0.0
2016-Apr-28 14:32N 54°35' W 001°13'0 0.0
2016-Apr-28 13:33N 54°35' W 001°13'0 0.0
2016-Apr-28 12:33N 54°35' W 001°13'0 0.0
2016-Apr-28 11:32N 54°35' W 001°13'0 0.0
2016-Apr-28 10:33N 54°35' W 001°13'0 0.0
2016-Apr-28 09:33N 54°35' W 001°13'0 0.0
2016-Apr-28 08:33N 54°35' W 001°13'0 0.0
2016-Apr-28 07:33N 54°35' W 001°13'0 0.0
2016-Apr-28 06:33N 54°35' W 001°13'0 0.0
2016-Apr-28 05:32N 54°35' W 001°13'3 0.5
2016-Apr-27 23:33N 54°37' W 001°10'0 0.4
2016-Apr-27 22:33N 54°38' W 001°09'1 1.0
2016-Apr-27 21:33N 54°37' W 001°09'3 1.1
2016-Apr-27 19:07N 54°35' W 001°13'0 0.0
2016-Apr-27 18:32N 54°35' W 001°13'0 0.0
2016-Apr-27 17:33N 54°35' W 001°13'0 0.0
2016-Apr-27 16:30N 54°35' W 001°13'0 0.0
2016-Apr-27 15:33N 54°35' W 001°13'0 0.0
2016-Apr-27 14:31N 54°35' W 001°13'0 0.0
2016-Apr-27 13:32N 54°35' W 001°13'0 0.0
2016-Apr-27 12:32N 54°35' W 001°13'0 0.0
2016-Apr-27 11:32N 54°35' W 001°13'0 0.0
2016-Apr-27 10:33N 54°35' W 001°13'0 0.0
2016-Apr-27 09:28N 54°35' W 001°13'0 0.0
2016-Apr-27 08:32N 54°35' W 001°13'0 0.0
2016-Apr-27 07:33N 54°35' W 001°13'3 3.0
2016-Apr-27 06:33N 54°37' W 001°09'2 2.3
2016-Apr-27 05:33N 54°35' W 001°11'2 0.5
2016-Apr-27 00:33N 54°37' W 001°09'0 0.3
2016-Apr-26 23:33N 54°37' W 001°09'1 0.4
2016-Apr-26 21:33N 54°36' W 001°10'1 1.2
2016-Apr-26 20:33N 54°37' W 001°09'3 2.2
2016-Apr-26 19:05N 54°35' W 001°13'3 6.0
2016-Apr-26 18:33N 54°37' W 001°10'0 0.3
2016-Apr-26 17:33N 54°37' W 001°09'3 3.1
2016-Apr-26 16:32N 54°35' W 001°13'0 0.1
2016-Apr-26 15:33N 54°35' W 001°13'0 0.0
2016-Apr-26 14:30N 54°35' W 001°13'0 0.0
2016-Apr-26 10:14N 54°35' W 001°13'0 0.0
2016-Apr-26 09:21N 54°35' W 001°13'0 0.0
2016-Apr-26 08:32N 54°35' W 001°13'0 0.0
2016-Apr-26 07:32N 54°35' W 001°13'0 0.0
2016-Apr-26 06:23N 54°35' W 001°13'0 0.0
2016-Apr-26 05:33N 54°35' W 001°13'0 0.0
2016-Apr-25 18:33N 54°35' W 001°13'0 0.0
2016-Apr-25 17:31N 54°35' W 001°13'0 0.0
2016-Apr-25 16:33N 54°35' W 001°13'0 0.0
2016-Apr-25 15:30N 54°35' W 001°13'0 0.0
2016-Apr-25 14:33N 54°35' W 001°13'0 0.0
2016-Apr-25 13:25N 54°35' W 001°13'0 0.0
2016-Apr-25 12:29N 54°35' W 001°13'2 2.3
2016-Apr-25 11:33N 54°36' W 001°10'1 0.5
2016-Apr-25 10:33N 54°36' W 001°10'2 1.5
2016-Apr-25 09:29N 54°35' W 001°13'0 0.0
2016-Apr-25 08:31N 54°35' W 001°13'0 0.0
2016-Apr-25 07:33N 54°35' W 001°13'0 0.0
2016-Apr-25 06:33N 54°35' W 001°13'0 0.0
2016-Apr-25 05:32N 54°35' W 001°13'0 0.0
2016-Apr-24 19:13N 54°35' W 001°13'0 0.0
2016-Apr-24 18:31N 54°35' W 001°13'0 0.0
2016-Apr-24 17:19N 54°35' W 001°13'0 0.0
2016-Apr-24 16:20N 54°35' W 001°13'0 0.0
2016-Apr-24 15:33N 54°35' W 001°13'0 0.0
2016-Apr-24 14:24N 54°35' W 001°13'0 0.0
2016-Apr-24 09:09N 54°35' W 001°13'0 0.0
2016-Apr-24 08:11N 54°35' W 001°13'0 0.0
2016-Apr-24 07:22N 54°35' W 001°13'0 0.0
2016-Apr-24 06:30N 54°35' W 001°13'0 0.0
2016-Apr-24 05:33N 54°35' W 001°13'0 0.0
2016-Apr-23 18:15N 54°35' W 001°13'0 0.0
2016-Apr-23 17:27N 54°35' W 001°13'0 0.0
2016-Apr-23 16:33N 54°35' W 001°13'0 0.0
2016-Apr-23 15:33N 54°35' W 001°13'0 0.0
2016-Apr-23 14:31N 54°35' W 001°13'3 0.9
2016-Apr-23 11:33N 54°37' W 001°09'3 2.7
2016-Apr-23 10:32N 54°35' W 001°13'0 0.0
2016-Apr-23 07:30N 54°35' W 001°13'0 0.0
2016-Apr-23 06:22N 54°35' W 001°13'0 0.0
2016-Apr-23 01:23N 54°35' W 001°13'0 0.0
2016-Apr-22 23:25N 54°35' W 001°13'0 0.0
2016-Apr-22 20:30N 54°35' W 001°13'0 0.0
2016-Apr-22 18:32N 54°35' W 001°13'0 0.0
2016-Apr-22 17:30N 54°35' W 001°13'0 0.0
2016-Apr-22 16:33N 54°35' W 001°13'0 0.0
2016-Apr-22 15:33N 54°35' W 001°13'0 0.0
2016-Apr-22 14:31N 54°35' W 001°13'0 0.0
2016-Apr-22 13:32N 54°35' W 001°13'3 2.9
2016-Apr-22 12:33N 54°37' W 001°09'1 0.7
2016-Apr-22 11:33N 54°38' W 001°10'3 2.5
2016-Apr-22 10:32N 54°35' W 001°11'1 0.9
2016-Apr-22 09:32N 54°35' W 001°13'0 0.0
2016-Apr-22 06:29N 54°35' W 001°13'0 0.0
2016-Apr-22 05:25N 54°35' W 001°13'0 0.0
2016-Apr-22 04:13N 54°35' W 001°13'1 2.0
2016-Apr-22 03:33N 54°36' W 001°11'0 0.2
2016-Apr-22 02:33N 54°36' W 001°11'2 0.5
2016-Apr-21 23:33N 54°35' W 001°13'0 0.0
2016-Apr-21 22:33N 54°35' W 001°13'0 0.0
2016-Apr-21 20:18N 54°35' W 001°13'0 0.0
2016-Apr-21 19:29N 54°35' W 001°13'0 0.0
2016-Apr-21 18:33N 54°35' W 001°13'0 0.0
2016-Apr-21 17:29N 54°35' W 001°13'0 0.0
2016-Apr-21 16:32N 54°35' W 001°13'0 0.0
2016-Apr-21 15:30N 54°35' W 001°13'0 0.0
2016-Apr-21 14:33N 54°35' W 001°13'3 3.0
2016-Apr-21 13:33N 54°37' W 001°09'3 3.0
2016-Apr-21 12:33N 54°35' W 001°13'0 0.0
2016-Apr-21 11:32N 54°35' W 001°13'0 0.0
2016-Apr-21 10:33N 54°35' W 001°13'0 0.0
2016-Apr-21 09:33N 54°35' W 001°13'0 0.0
2016-Apr-21 08:33N 54°35' W 001°13'0 0.0
2016-Apr-21 07:33N 54°35' W 001°13'0 0.0
2016-Apr-21 06:33N 54°35' W 001°13'0 0.0
2016-Apr-21 05:33N 54°35' W 001°13'0 0.0
2016-Apr-21 04:33N 54°35' W 001°13'0 0.0
2016-Apr-21 03:33N 54°35' W 001°13'3 2.8
2016-Apr-21 02:33N 54°37' W 001°09'0 0.2
2016-Apr-21 01:32N 54°37' W 001°09'0 0.3
2016-Apr-21 00:33N 54°37' W 001°09'2 1.9
2016-Apr-20 23:31N 54°36' W 001°11'1 0.3
2016-Apr-20 18:32N 54°35' W 001°13'0 0.0
2016-Apr-20 17:33N 54°35' W 001°13'0 0.0
2016-Apr-20 16:32N 54°35' W 001°13'0 0.0
2016-Apr-20 15:32N 54°35' W 001°13'0 0.0
2016-Apr-20 14:30N 54°35' W 001°13'1 1.0
2016-Apr-20 13:29N 54°35' W 001°11'  

Dump ship's entire track history